Santo Estevao, Brazil
Current Conditions -  °F | °C
As of 9:00 AM on Saturday 22 Nov 2014 (Local Time) from SBSV Reporting Station
Broken Clouds Broken Clouds  
Wind Chill: 81°   Ceiling: 7000
Heat Index: 85°   Visibility: 6mi
Dew Point: 73°   Wind: 13mph
Humidity: 79%   Direction: 110°ESE
Pressure: 29.97"   Gusts: NA
Location:  12.43°S, 39.25°W
Report Text: SBSV 221200Z 11011KT 9999 SCT015 FEW020TCU BKN070 27/23 Q1015
Loading
Personal Weather Stations






























Interactive Weather Map New forecast layout! Learn more

10-Day Weather Forecast

Advertisements
Track Severe Weather on mobile